Time;durP1;ratioP1;P1;durP2;ratioP2;P2;SDS_P1;SDS_P2;PMS_P1;PMS_P2;Temp;Humidity;BMP_temperature;BMP_pressure;BME280_temperature;BME280_humidity;BME280_pressure;Samples;Min_cycle;Max_cycle;Signal;HPM_P1;HPM_P2
2022/08/29 00:02:21;;;;;;;10.90;9.90;;;15.70;99.90;;;;;;4953215;28;20986;-71
2022/08/29 00:04:46;;;;;;;9.80;8.80;;;15.60;99.90;;;;;;4953371;28;20188;-71
2022/08/29 00:07:12;;;;;;;12.70;9.97;;;15.60;99.90;;;;;;4944956;29;20204;-70
2022/08/29 00:09:37;;;;;;;10.50;9.20;;;15.50;99.90;;;;;;4953379;28;20189;-71
2022/08/29 00:12:04;;;;;;;9.37;8.47;;;15.60;99.90;;;;;;4953296;28;20673;-70
2022/08/29 00:14:30;;;;;;;10.10;8.30;;;15.50;99.90;;;;;;4953185;28;20188;-71
2022/08/29 00:16:56;;;;;;;15.17;8.90;;;15.50;99.90;;;;;;4953005;28;20420;-72
2022/08/29 00:19:21;;;;;;;12.30;9.20;;;15.50;99.90;;;;;;4953154;29;20483;-71
2022/08/29 00:21:47;;;;;;;10.87;9.33;;;15.40;99.90;;;;;;4953082;28;20354;-70
2022/08/29 00:24:13;;;;;;;10.40;9.13;;;15.40;99.90;;;;;;4953010;28;20236;-71
2022/08/29 00:26:38;;;;;;;11.17;9.97;;;15.40;99.90;;;;;;4953033;28;20185;-73
2022/08/29 00:29:04;;;;;;;15.40;10.50;;;15.40;99.90;;;;;;4953365;28;20196;-71
2022/08/29 00:31:29;;;;;;;10.57;9.20;;;15.30;99.90;;;;;;4952937;29;20220;-71
2022/08/29 00:33:56;;;;;;;10.40;9.40;;;15.30;99.90;;;;;;4953232;28;20188;-71
2022/08/29 00:36:22;;;;;;;10.57;9.53;;;15.30;99.90;;;;;;4952814;29;20220;-71
2022/08/29 00:38:48;;;;;;;9.77;8.87;;;15.30;99.90;;;;;;4953324;28;20432;-71
2022/08/29 00:41:13;;;;;;;13.00;10.97;;;15.30;99.90;;;;;;4952837;29;20831;-72
2022/08/29 00:43:39;;;;;;;11.30;10.10;;;15.30;99.90;;;;;;4952821;29;20212;-71
2022/08/29 00:46:16;;;;;;;12.73;9.93;;;15.20;99.90;;;;;;4954108;28;20718;-71
2022/08/29 00:48:47;;;;;;;10.33;9.30;;;15.20;99.90;;;;;;4956734;28;20251;-72
2022/08/29 00:51:17;;;;;;;18.80;9.77;;;15.20;99.90;;;;;;4956217;29;20930;-72
2022/08/29 00:53:46;;;;;;;11.53;9.63;;;15.10;99.90;;;;;;4956639;28;20764;-72
2022/08/29 00:56:14;;;;;;;12.50;9.37;;;15.10;99.90;;;;;;4957263;29;20431;-71
2022/08/29 00:59:09;;;;;;;11.73;10.00;;;15.10;99.90;;;;;;4956514;28;20424;-71
2022/08/29 02:32:13;;;;;;;11.53;9.60;;;14.50;99.90;;;;;;5391319;23;20532;-69
2022/08/29 02:34:43;;;;;;;13.70;10.20;;;14.50;99.90;;;;;;4938322;29;20817;-70
2022/08/29 02:37:08;;;;;;;10.50;9.23;;;14.50;99.90;;;;;;4940816;29;20433;-70
2022/08/29 02:39:34;;;;;;;11.87;9.20;;;14.50;99.90;;;;;;4946908;29;20413;-71
2022/08/29 02:42:00;;;;;;;12.07;9.70;;;14.40;99.90;;;;;;4943249;28;20201;-70
2022/08/29 02:44:26;;;;;;;10.00;8.80;;;14.40;99.90;;;;;;4937623;29;20647;-71
2022/08/29 02:46:52;;;;;;;9.60;8.43;;;14.40;99.90;;;;;;4944289;29;20438;-71
2022/08/29 02:49:17;;;;;;;10.13;9.07;;;14.40;99.90;;;;;;4950081;29;20196;-68
2022/08/29 02:51:43;;;;;;;10.97;9.87;;;14.40;99.90;;;;;;4943369;28;20674;-72
2022/08/29 02:54:08;;;;;;;13.43;8.80;;;14.40;99.90;;;;;;4949899;29;20273;-71
2022/08/29 02:56:34;;;;;;;11.60;9.40;;;14.40;99.90;;;;;;4943144;29;20188;-70
2022/08/29 02:59:00;;;;;;;16.53;9.67;;;14.30;99.90;;;;;;4949773;29;20596;-70
2022/08/29 03:01:25;;;;;;;12.10;8.43;;;14.30;99.90;;;;;;4940981;28;20561;-70
2022/08/29 03:03:51;;;;;;;13.70;9.87;;;14.30;99.90;;;;;;4943676;29;20562;-70
2022/08/29 03:06:18;;;;;;;10.20;9.20;;;14.20;99.90;;;;;;4943873;28;20188;-70
2022/08/29 03:08:45;;;;;;;9.87;8.30;;;14.30;99.90;;;;;;4946280;28;20239;-70
2022/08/29 03:11:11;;;;;;;10.53;9.57;;;14.30;99.90;;;;;;4944851;28;20448;-70
2022/08/29 03:13:37;;;;;;;10.80;9.83;;;14.20;99.90;;;;;;4945843;29;20453;-72
2022/08/29 03:16:03;;;;;;;11.60;10.00;;;14.20;99.90;;;;;;4945853;28;20435;-71
2022/08/29 03:18:29;;;;;;;14.10;10.17;;;14.20;99.90;;;;;;4944590;29;20806;-70
2022/08/29 03:20:55;;;;;;;12.20;8.93;;;14.10;99.90;;;;;;4945990;28;20882;-71
2022/08/29 03:23:20;;;;;;;12.13;9.33;;;14.10;99.90;;;;;;4943738;29;20467;-71
2022/08/29 03:25:46;;;;;;;9.60;8.70;;;14.10;99.90;;;;;;4945961;29;20231;-71
2022/08/29 03:28:11;;;;;;;12.93;8.60;;;14.10;99.90;;;;;;4943736;29;20272;-72
2022/08/29 03:30:37;;;;;;;11.13;9.10;;;14.00;99.90;;;;;;4945948;28;20200;-70
2022/08/29 03:33:04;;;;;;;12.13;9.03;;;14.00;99.90;;;;;;4943066;29;20650;-70
2022/08/29 03:35:29;;;;;;;12.77;8.40;;;14.00;99.90;;;;;;4945703;28;20260;-70
2022/08/29 03:37:55;;;;;;;13.63;9.60;;;14.00;99.90;;;;;;4944150;28;20567;-71
2022/08/29 03:40:21;;;;;;;9.90;8.60;;;14.00;99.90;;;;;;4944918;29;20184;-70
2022/08/29 03:42:47;;;;;;;12.90;8.97;;;13.90;99.90;;;;;;4944848;28;20661;-70
2022/08/29 03:45:16;;;;;;;12.43;8.87;;;14.00;99.90;;;;;;4943620;29;20520;-71
2022/08/29 03:47:42;;;;;;;16.97;8.83;;;13.90;99.90;;;;;;4945868;28;20188;-71
2022/08/29 03:50:08;;;;;;;9.87;8.60;;;13.90;99.90;;;;;;4943140;29;20504;-71
2022/08/29 03:52:34;;;;;;;14.87;9.37;;;13.90;99.90;;;;;;4945693;28;20192;-71
2022/08/29 03:54:59;;;;;;;9.47;8.50;;;13.90;99.90;;;;;;4943239;29;20421;-72
2022/08/29 03:57:25;;;;;;;9.13;8.10;;;13.90;99.90;;;;;;4945252;29;20180;-70
2022/08/29 03:59:51;;;;;;;13.40;9.30;;;13.80;99.90;;;;;;4944263;28;20267;-70
2022/08/29 04:02:17;;;;;;;10.20;7.60;;;13.80;99.90;;;;;;4943881;28;20905;-70
2022/08/29 04:05:16;;;;;;;9.57;8.50;;;13.80;99.90;;;;;;4945100;28;20573;-71
2022/08/29 04:07:49;;;;;;;12.27;9.37;;;13.80;99.90;;;;;;4931718;29;20194;-71
2022/08/29 04:10:29;;;;;;;10.27;8.90;;;13.80;99.90;;;;;;4942449;29;20540;-71
2022/08/29 04:12:55;;;;;;;11.20;7.80;;;13.80;99.90;;;;;;4945736;28;20484;-70
2022/08/29 04:15:21;;;;;;;9.63;8.67;;;13.70;99.90;;;;;;4944421;29;20934;-70
2022/08/29 04:17:50;;;;;;;10.83;9.73;;;13.70;99.90;;;;;;4946632;28;20439;-70
2022/08/29 04:20:15;;;;;;;9.30;8.13;;;13.70;99.90;;;;;;4943867;29;20470;-70
2022/08/29 04:22:41;;;;;;;27.30;9.80;;;13.70;99.90;;;;;;4947112;28;20552;-70
2022/08/29 04:25:10;;;;;;;12.10;9.10;;;13.70;99.90;;;;;;4943325;29;20642;-70
2022/08/29 04:27:36;;;;;;;11.20;8.73;;;13.70;99.90;;;;;;4948634;28;20918;-70
2022/08/29 04:30:07;;;;;;;12.63;8.50;;;13.70;99.90;;;;;;4943260;29;20432;-71
2022/08/29 04:32:33;;;;;;;12.73;8.27;;;13.70;99.90;;;;;;4948588;28;20284;-70
2022/08/29 04:34:58;;;;;;;13.07;8.40;;;13.70;99.90;;;;;;4942228;29;20433;-70
2022/08/29 04:37:24;;;;;;;13.83;8.57;;;13.70;99.90;;;;;;4949084;29;20273;-70
2022/08/29 04:39:50;;;;;;;14.40;8.00;;;13.60;99.90;;;;;;4941756;29;20201;-70
2022/08/29 04:42:17;;;;;;;9.20;8.40;;;13.70;99.90;;;;;;4948927;28;20716;-70
2022/08/29 04:44:43;;;;;;;11.37;8.33;;;13.70;99.90;;;;;;4941755;29;20472;-70
2022/08/29 04:47:09;;;;;;;14.00;8.90;;;13.60;99.90;;;;;;4948917;29;20460;-70
2022/08/29 04:49:34;;;;;;;11.90;9.20;;;13.60;99.90;;;;;;4942077;29;20468;-70
2022/08/29 04:52:00;;;;;;;14.63;9.30;;;13.60;99.90;;;;;;4948509;28;20215;-70
2022/08/29 04:54:25;;;;;;;9.97;7.93;;;13.60;99.90;;;;;;4941903;29;20185;-70
2022/08/29 04:56:51;;;;;;;12.00;8.90;;;13.60;99.90;;;;;;4947693;29;20203;-69
2022/08/29 04:59:16;;;;;;;14.10;8.53;;;13.60;99.90;;;;;;4942587;29;20188;-69
2022/08/29 05:01:42;;;;;;;10.53;7.77;;;13.60;99.90;;;;;;4944668;28;20208;-70
2022/08/29 05:04:08;;;;;;;9.00;7.87;;;13.60;99.90;;;;;;4943761;29;20248;-69
2022/08/29 05:06:34;;;;;;;12.00;8.10;;;13.70;99.90;;;;;;4944416;29;20381;-69
2022/08/29 05:08:59;;;;;;;10.70;7.97;;;13.70;99.90;;;;;;4941798;29;20428;-69
2022/08/29 05:11:25;;;;;;;15.17;9.20;;;13.70;99.90;;;;;;4930539;29;20336;-70
2022/08/29 05:13:52;;;;;;;11.93;8.83;;;13.70;99.90;;;;;;4930718;29;20185;-69
2022/08/29 05:16:18;;;;;;;11.70;8.80;;;13.80;99.90;;;;;;4933016;29;20425;-70
2022/08/29 05:18:45;;;;;;;10.00;8.70;;;13.80;99.90;;;;;;4939082;29;20447;-69
2022/08/29 05:21:11;;;;;;;12.77;8.90;;;13.90;99.90;;;;;;4941403;29;20269;-69
2022/08/29 05:23:37;;;;;;;11.27;9.47;;;14.00;99.90;;;;;;4944830;28;20467;-71
2022/08/29 05:26:04;;;;;;;9.10;8.20;;;14.20;99.90;;;;;;4941316;29;20791;-69
2022/08/29 05:28:31;;;;;;;12.00;9.40;;;14.40;99.90;;;;;;4944816;28;20644;-72
2022/08/29 05:30:57;;;;;;;11.10;7.30;;;14.60;99.90;;;;;;4941212;29;20536;-70
2022/08/29 05:33:23;;;;;;;12.20;6.93;;;14.90;99.90;;;;;;4947317;29;20435;-70
2022/08/29 05:35:48;;;;;;;15.43;7.90;;;15.20;99.90;;;;;;4947069;29;20417;-69
2022/08/29 05:38:15;;;;;;;15.90;7.33;;;15.40;99.90;;;;;;4946368;29;20264;-71
2022/08/29 05:40:41;;;;;;;15.00;7.50;;;15.70;99.90;;;;;;4948119;28;20323;-70
2022/08/29 05:43:09;;;;;;;8.97;7.37;;;15.90;99.90;;;;;;4945141;29;20464;-70
2022/08/29 05:45:36;;;;;;;7.83;7.07;;;16.10;99.90;;;;;;4948503;28;20417;-71
2022/08/29 05:48:06;;;;;;;7.80;6.90;;;16.40;99.90;;;;;;4952298;29;20424;-69
2022/08/29 05:50:36;;;;;;;17.23;6.33;;;16.60;99.90;;;;;;4944626;29;20467;-70
2022/08/29 05:53:01;;;;;;;8.03;6.93;;;16.70;99.90;;;;;;4951984;29;20435;-69
2022/08/29 05:55:27;;;;;;;7.87;6.17;;;17.00;99.90;;;;;;4944285;29;20421;-70
2022/08/29 05:57:53;;;;;;;8.50;5.73;;;17.20;99.90;;;;;;4950930;29;20587;-70
2022/08/29 06:00:19;;;;;;;8.63;6.20;;;17.40;99.90;;;;;;4945017;28;20251;-70
2022/08/29 06:02:44;;;;;;;8.73;6.70;;;17.50;99.90;;;;;;4943481;29;20521;-69
2022/08/29 06:05:10;;;;;;;11.83;6.73;;;17.80;99.90;;;;;;4946157;29;20214;-71
2022/08/29 06:07:35;;;;;;;12.00;6.60;;;18.00;99.90;;;;;;4947852;29;20177;-70
2022/08/29 06:10:05;;;;;;;11.73;6.80;;;18.30;99.90;;;;;;4947444;29;20196;-70
2022/08/29 06:12:31;;;;;;;10.37;5.90;;;18.40;99.90;;;;;;4946719;29;20256;-70
2022/08/29 06:14:56;;;;;;;5.97;5.43;;;18.50;99.90;;;;;;4948721;28;20432;-72
2022/08/29 06:17:22;;;;;;;10.50;6.63;;;18.70;99.90;;;;;;4946887;29;20215;-70
2022/08/29 06:19:50;;;;;;;8.67;6.00;;;18.90;99.90;;;;;;4947773;29;20582;-70
2022/08/29 06:22:18;;;;;;;10.83;6.27;;;19.20;99.90;;;;;;4946909;28;20213;-70
2022/08/29 06:24:44;;;;;;;11.33;6.10;;;19.60;99.90;;;;;;4948196;28;20515;-69
2022/08/29 06:27:10;;;;;;;7.93;5.83;;;19.90;99.90;;;;;;4945900;28;20471;-70
2022/08/29 06:29:36;;;;;;;9.30;6.40;;;20.20;99.90;;;;;;4947283;28;20455;-70
2022/08/29 06:32:01;;;;;;;12.70;6.30;;;20.40;99.90;;;;;;4945309;29;20296;-70
2022/08/29 06:34:27;;;;;;;9.97;5.40;;;20.70;99.90;;;;;;4946961;29;20185;-70
2022/08/29 06:36:52;;;;;;;9.07;6.07;;;20.90;99.90;;;;;;4946309;29;20558;-69
2022/08/29 06:39:18;;;;;;;7.30;5.90;;;21.20;99.90;;;;;;4945804;29;20651;-71
2022/08/29 06:41:44;;;;;;;10.63;6.00;;;21.50;99.90;;;;;;4946976;28;20227;-69
2022/08/29 06:44:09;;;;;;;13.03;5.93;;;21.70;99.90;;;;;;4943918;28;20579;-69
2022/08/29 06:46:40;;;;;;;10.10;6.77;;;21.90;99.90;;;;;;4946873;29;20276;-70
2022/08/29 06:49:10;;;;;;;9.13;5.33;;;22.20;99.90;;;;;;4944738;28;20177;-70
2022/08/29 06:51:37;;;;;;;8.57;5.53;;;22.20;99.90;;;;;;4942135;28;20445;-71
2022/08/29 06:54:05;;;;;;;10.57;6.10;;;22.40;99.90;;;;;;4943576;29;20429;-72
2022/08/29 06:56:31;;;;;;;13.20;6.67;;;22.60;99.90;;;;;;4946829;28;20455;-71
2022/08/29 06:58:57;;;;;;;7.73;6.00;;;22.60;99.90;;;;;;4944445;28;20449;-71
2022/08/29 07:01:23;;;;;;;7.47;5.70;;;23.00;99.90;;;;;;4943004;29;20449;-71
2022/08/29 07:03:52;;;;;;;12.83;5.90;;;23.10;99.90;;;;;;4945776;29;20213;-71
2022/08/29 07:06:17;;;;;;;7.30;6.30;;;23.30;99.90;;;;;;4944939;29;20926;-71
2022/08/29 07:08:44;;;;;;;6.90;6.20;;;23.40;99.90;;;;;;4946258;28;20476;-71
2022/08/29 07:11:09;;;;;;;10.20;6.23;;;23.60;99.90;;;;;;4950433;28;20219;-71
2022/08/29 07:13:35;;;;;;;10.50;7.00;;;23.70;99.90;;;;;;4943092;29;20437;-71
2022/08/29 07:16:01;;;;;;;13.23;6.83;;;24.00;99.90;;;;;;4950019;29;20491;-71
2022/08/29 07:18:27;;;;;;;8.57;6.80;;;24.10;99.90;;;;;;4944686;29;20192;-71
2022/08/29 07:20:53;;;;;;;7.23;6.00;;;24.40;99.90;;;;;;4949141;28;20806;-71
2022/08/29 07:23:19;;;;;;;9.30;6.10;;;24.60;99.90;;;;;;4943272;28;20218;-73
2022/08/29 07:25:45;;;;;;;8.43;6.00;;;24.70;99.90;;;;;;4948165;29;20425;-70
2022/08/29 07:28:10;;;;;;;10.67;6.80;;;24.70;99.90;;;;;;4944522;29;20242;-71
2022/08/29 07:30:36;;;;;;;8.97;6.37;;;24.90;99.90;;;;;;4946709;28;20563;-71
2022/08/29 07:33:01;;;;;;;10.67;6.30;;;25.10;99.90;;;;;;4945537;29;20345;-71
2022/08/29 07:35:27;;;;;;;6.33;5.53;;;25.30;99.90;;;;;;4945467;29;20181;-71
2022/08/29 07:37:57;;;;;;;9.03;6.60;;;25.30;99.90;;;;;;4945982;29;20271;-71
2022/08/29 07:40:23;;;;;;;8.70;6.13;;;25.60;99.90;;;;;;4944991;28;20191;-73
2022/08/29 07:42:49;;;;;;;8.30;6.37;;;25.60;99.90;;;;;;4945530;28;20961;-71
2022/08/29 07:45:16;;;;;;;8.83;6.17;;;25.60;99.90;;;;;;4944665;29;20209;-71
2022/08/29 07:47:42;;;;;;;12.07;6.70;;;25.80;99.90;;;;;;4946367;28;20180;-71
2022/08/29 07:50:09;;;;;;;9.00;7.03;;;25.70;99.90;;;;;;4944666;28;20424;-71
2022/08/29 07:52:35;;;;;;;7.37;5.53;;;26.10;99.90;;;;;;4945664;28;20287;-71
2022/08/29 07:55:01;;;;;;;10.50;6.97;;;25.90;99.90;;;;;;4945076;29;20896;-71
2022/08/29 07:57:27;;;;;;;9.20;6.57;;;26.00;99.90;;;;;;4934000;29;20188;-71
2022/08/29 07:59:52;;;;;;;9.83;6.93;;;26.00;99.90;;;;;;4944466;29;20949;-71
2022/08/29 08:02:18;;;;;;;9.20;6.30;;;26.30;99.90;;;;;;4943294;28;20577;-71
2022/08/29 08:04:44;;;;;;;6.80;5.90;;;26.60;99.90;;;;;;4945362;28;20234;-71
2022/08/29 08:07:10;;;;;;;8.27;6.27;;;26.80;99.90;;;;;;4943277;28;20189;-71
2022/08/29 08:09:36;;;;;;;9.73;5.93;;;26.90;99.90;;;;;;4944588;28;20423;-70
2022/08/29 08:12:04;;;;;;;7.07;5.57;;;27.00;99.90;;;;;;4934691;28;20811;-71
2022/08/29 08:14:30;;;;;;;14.17;6.13;;;27.20;99.90;;;;;;4945256;28;20239;-71
2022/08/29 08:16:56;;;;;;;10.60;6.30;;;27.40;99.90;;;;;;4943730;28;20475;-71
2022/08/29 08:19:21;;;;;;;10.60;6.00;;;27.60;99.90;;;;;;4944795;29;20428;-70
2022/08/29 08:21:47;;;;;;;9.07;5.47;;;27.70;99.90;;;;;;4944699;28;20740;-72
2022/08/29 08:24:12;;;;;;;8.43;5.27;;;27.90;99.90;;;;;;4943284;29;20228;-71
2022/08/29 08:26:38;;;;;;;11.10;6.00;;;28.10;99.90;;;;;;4945733;29;20214;-70
2022/08/29 08:29:03;;;;;;;10.23;5.70;;;28.40;99.90;;;;;;4942249;29;20189;-71
2022/08/29 08:31:29;;;;;;;8.30;5.37;;;28.00;99.90;;;;;;4946396;28;20299;-71
2022/08/29 08:33:55;;;;;;;6.13;5.53;;;27.80;99.90;;;;;;4948810;29;20196;-71
2022/08/29 08:36:29;;;;;;;6.37;5.70;;;27.80;99.90;;;;;;4942252;29;20203;-71
2022/08/29 08:38:57;;;;;;;10.37;6.30;;;28.30;99.90;;;;;;4948683;29;20211;-71
2022/08/29 08:41:25;;;;;;;13.60;6.30;;;28.40;99.90;;;;;;4942377;28;20973;-70
2022/08/29 08:44:02;;;;;;;8.20;6.40;;;28.20;99.90;;;;;;4947794;29;20799;-70
2022/08/29 08:46:39;;;;;;;7.93;6.03;;;28.30;99.90;;;;;;4936980;29;20429;-71
2022/08/29 08:49:15;;;;;;;8.27;6.30;;;28.60;99.90;;;;;;4948930;29;20439;-71
2022/08/29 08:51:49;;;;;;;9.77;6.50;;;28.00;99.90;;;;;;4941564;28;20445;-71
2022/08/29 08:54:26;;;;;;;9.90;6.30;;;28.70;99.90;;;;;;4949102;29;20804;-72
2022/08/29 08:57:08;;;;;;;9.70;6.00;;;29.40;99.90;;;;;;4941481;29;20492;-71
2022/08/29 08:59:48;;;;;;;12.40;6.47;;;29.90;99.90;;;;;;4935501;29;20786;-71
2022/08/29 09:02:33;;;;;;;9.50;6.10;;;30.30;99.90;;;;;;4941101;28;20457;-71
2022/08/29 09:05:27;;;;;;;10.17;7.30;;;30.50;99.90;;;;;;4944903;28;20520;-71
2022/08/29 09:08:01;;;;;;;7.83;7.03;;;30.80;99.90;;;;;;4926313;29;20448;-72
2022/08/29 09:10:56;;;;;;;12.03;6.10;;;30.60;99.90;;;;;;4939635;29;20427;-71
2022/08/29 09:13:38;;;;;;;9.40;7.00;;;30.70;99.90;;;;;;4921445;29;20439;-70
2022/08/29 09:16:13;;;;;;;7.60;6.30;;;30.90;99.90;;;;;;4947525;29;20519;-70
2022/08/29 09:18:43;;;;;;;12.83;6.87;;;30.90;99.90;;;;;;4944242;29;20455;-72
2022/08/29 09:21:18;;;;;;;7.50;6.50;;;31.10;99.90;;;;;;4948669;28;20479;-71
2022/08/29 09:23:50;;;;;;;8.53;6.57;;;31.10;99.90;;;;;;4942386;29;20466;-71
2022/08/29 09:26:18;;;;;;;8.50;6.10;;;31.40;99.90;;;;;;4946096;28;20424;-71
2022/08/29 09:28:44;;;;;;;11.73;6.50;;;31.80;99.90;;;;;;4943674;29;20427;-71
2022/08/29 09:31:15;;;;;;;10.13;6.57;;;32.00;99.90;;;;;;4946680;28;20814;-71
2022/08/29 09:33:45;;;;;;;6.03;5.50;;;32.10;99.90;;;;;;4942885;29;20181;-71
2022/08/29 09:36:31;;;;;;;7.13;5.53;;;31.90;99.90;;;;;;4946240;28;20936;-71
2022/08/29 09:39:10;;;;;;;10.47;5.27;;;32.00;99.90;;;;;;4946659;29;20425;-72
2022/08/29 09:41:35;;;;;;;7.40;6.10;;;32.40;99.90;;;;;;4941744;28;20440;-71
2022/08/29 09:44:01;;;;;;;7.40;5.83;;;32.20;99.90;;;;;;4951209;29;20983;-71
2022/08/29 09:46:27;;;;;;;11.00;5.90;;;31.40;99.90;;;;;;4940673;29;20260;-71
2022/08/29 09:49:13;;;;;;;7.00;6.10;;;31.50;99.90;;;;;;4949623;29;20448;-71
2022/08/29 09:51:45;;;;;;;6.47;5.10;;;31.90;99.90;;;;;;4942541;28;20201;-73
2022/08/29 09:54:21;;;;;;;5.20;4.70;;;32.40;99.90;;;;;;4950338;29;20420;-71
2022/08/29 09:57:01;;;;;;;6.30;5.30;;;32.50;99.90;;;;;;4944429;29;20425;-71
2022/08/29 09:59:33;;;;;;;7.43;5.97;;;32.60;99.90;;;;;;4938515;29;20421;-72
2022/08/29 10:02:31;;;;;;;6.57;5.47;;;32.50;99.90;;;;;;4940518;28;20448;-71
2022/08/29 10:05:01;;;;;;;6.40;5.00;;;32.50;99.90;;;;;;4942640;29;20469;-71
2022/08/29 10:07:33;;;;;;;7.20;4.50;;;32.00;99.90;;;;;;4947291;29;20889;-71
2022/08/29 10:10:05;;;;;;;6.13;5.27;;;32.10;99.90;;;;;;4940588;28;20417;-71
2022/08/29 10:12:58;;;;;;;6.30;5.70;;;32.30;99.90;;;;;;4932574;29;20443;-71
2022/08/29 10:15:32;;;;;;;6.50;5.30;;;32.00;99.90;;;;;;4946499;29;20467;-71
2022/08/29 10:18:19;;;;;;;9.97;5.10;;;32.20;99.90;;;;;;4944702;28;20430;-72
2022/08/29 10:20:57;;;;;;;4.97;4.47;;;32.30;99.90;;;;;;4938997;28;20424;-73
2022/08/29 10:23:38;;;;;;;8.13;5.57;;;32.50;99.90;;;;;;4946724;29;20467;-74
2022/08/29 10:26:28;;;;;;;5.23;4.73;;;32.20;99.90;;;;;;4946606;28;20450;-73
2022/08/29 10:29:27;;;;;;;7.00;4.40;;;32.20;99.90;;;;;;4947182;28;20420;-73
2022/08/29 10:32:19;;;;;;;6.40;3.73;;;32.50;99.90;;;;;;4939010;28;20851;-73
2022/08/29 10:35:01;;;;;;;6.30;4.70;;;33.00;99.90;;;;;;4941495;29;20484;-73
2022/08/29 10:37:45;;;;;;;5.43;4.50;;;33.20;99.90;;;;;;4950931;29;20906;-73
2022/08/29 10:40:38;;;;;;;5.47;4.93;;;33.20;99.90;;;;;;4942476;29;20985;-73
2022/08/29 10:43:31;;;;;;;5.10;4.57;;;33.00;99.90;;;;;;4945962;28;20464;-73
2022/08/29 10:46:16;;;;;;;6.00;4.70;;;32.80;99.90;;;;;;4946436;28;20425;-74
2022/08/29 10:49:00;;;;;;;6.20;4.77;;;32.70;99.90;;;;;;4945394;29;20466;-73
2022/08/29 10:51:51;;;;;;;4.83;4.30;;;32.50;99.90;;;;;;4945736;28;20811;-72
2022/08/29 10:54:35;;;;;;;7.40;4.70;;;32.50;99.90;;;;;;4946434;28;20424;-72
2022/08/29 10:57:03;;;;;;;4.60;4.00;;;31.90;99.90;;;;;;4947339;29;20438;-72
2022/08/29 10:59:59;;;;;;;5.40;5.00;;;31.60;99.90;;;;;;4937414;29;20435;-73
2022/08/29 11:02:28;;;;;;;5.57;5.07;;;31.70;99.90;;;;;;4950250;28;20968;-72
2022/08/29 11:04:58;;;;;;;4.53;4.17;;;31.90;99.90;;;;;;4943031;29;20984;-74
2022/08/29 11:07:35;;;;;;;6.20;4.80;;;31.30;99.90;;;;;;4949702;29;20791;-72
2022/08/29 11:10:21;;;;;;;9.37;5.07;;;31.20;99.90;;;;;;4939475;29;20906;-71
2022/08/29 11:13:04;;;;;;;11.20;5.00;;;30.50;99.90;;;;;;4938640;29;20790;-71
2022/08/29 11:15:56;;;;;;;5.33;3.87;;;29.90;99.90;;;;;;4931976;29;20412;-71
2022/08/29 11:18:43;;;;;;;4.90;4.50;;;29.90;99.90;;;;;;4944136;29;20429;-71
2022/08/29 11:21:42;;;;;;;5.50;4.60;;;30.20;99.90;;;;;;4943858;28;20444;-71
2022/08/29 11:24:10;;;;;;;5.37;3.80;;;30.40;99.90;;;;;;4945534;29;20464;-71
2022/08/29 11:26:59;;;;;;;9.70;4.57;;;30.40;99.90;;;;;;4938417;29;20459;-71
2022/08/29 11:29:44;;;;;;;7.13;4.00;;;30.20;99.90;;;;;;4942358;28;20970;-70
2022/08/29 11:32:30;;;;;;;7.87;4.50;;;30.00;99.90;;;;;;4948383;28;20881;-71
2022/08/29 11:35:08;;;;;;;5.37;3.67;;;29.90;99.90;;;;;;4938745;29;20432;-68
2022/08/29 11:37:39;;;;;;;4.70;3.57;;;29.80;99.90;;;;;;4937439;29;20600;-68
2022/08/29 11:40:36;;;;;;;4.77;4.33;;;29.70;99.90;;;;;;4942842;29;20512;-68
2022/08/29 11:43:05;;;;;;;6.10;4.40;;;29.60;99.90;;;;;;4943756;29;20464;-69
2022/08/29 11:45:39;;;;;;;5.10;4.60;;;29.60;99.90;;;;;;4927785;29;20432;-68
2022/08/29 11:48:19;;;;;;;9.73;4.10;;;29.30;99.90;;;;;;4942322;29;20433;-68
2022/08/29 11:50:45;;;;;;;5.23;4.50;;;29.20;99.90;;;;;;4946351;28;20416;-68
2022/08/29 11:53:21;;;;;;;4.23;3.93;;;29.10;99.90;;;;;;4943178;28;20436;-69
2022/08/29 11:56:11;;;;;;;8.40;4.33;;;29.30;99.90;;;;;;4945209;28;20447;-68
2022/08/29 11:58:39;;;;;;;5.57;4.17;;;29.50;99.90;;;;;;4934809;29;20427;-68
2022/08/29 12:01:08;;;;;;;4.83;4.27;;;29.60;99.90;;;;;;4935254;28;21646;-68
2022/08/29 12:03:33;;;;;;;9.97;4.30;;;29.70;99.90;;;;;;4945513;28;20460;-68
2022/08/29 12:06:14;;;;;;;5.10;4.10;;;29.60;99.90;;;;;;4943115;29;20424;-68
2022/08/29 12:09:11;;;;;;;7.00;3.83;;;29.60;99.90;;;;;;4935190;29;20192;-68
2022/08/29 12:11:55;;;;;;;6.50;4.13;;;29.60;99.90;;;;;;4945677;28;20440;-68
2022/08/29 12:14:34;;;;;;;6.20;4.73;;;29.70;99.90;;;;;;4944639;29;20488;-68
2022/08/29 12:17:02;;;;;;;5.83;4.63;;;29.70;99.90;;;;;;4945375;28;20427;-70
2022/08/29 12:19:46;;;;;;;8.70;4.33;;;29.60;99.90;;;;;;4942439;29;20447;-69
2022/08/29 12:22:43;;;;;;;9.90;4.00;;;29.60;99.90;;;;;;4943801;28;20440;-70
2022/08/29 12:25:27;;;;;;;7.90;3.70;;;29.40;99.90;;;;;;4946550;29;20425;-69
2022/08/29 12:28:01;;;;;;;6.17;4.03;;;29.50;99.90;;;;;;4940637;29;20421;-68
2022/08/29 12:30:32;;;;;;;6.17;4.33;;;29.80;99.90;;;;;;4949091;29;20412;-67
2022/08/29 12:33:22;;;;;;;5.67;3.90;;;30.00;99.90;;;;;;4941721;29;20608;-68
2022/08/29 12:36:04;;;;;;;6.07;3.93;;;29.50;99.90;;;;;;4937825;29;20695;-68
2022/08/29 12:38:53;;;;;;;7.90;4.20;;;29.00;99.90;;;;;;4931578;29;20413;-68
2022/08/29 12:41:52;;;;;;;5.70;4.90;;;28.60;99.90;;;;;;4945077;28;20869;-69
2022/08/29 12:44:25;;;;;;;7.63;4.67;;;28.30;99.90;;;;;;4947652;29;20499;-68
2022/08/29 12:46:59;;;;;;;6.33;4.40;;;28.20;99.90;;;;;;4948839;28;20456;-68
2022/08/29 12:49:33;;;;;;;7.50;4.40;;;28.20;99.90;;;;;;4947732;28;20416;-69
2022/08/29 12:52:05;;;;;;;8.93;4.37;;;28.40;99.90;;;;;;4949128;28;20525;-70
2022/08/29 12:54:36;;;;;;;7.27;4.10;;;28.60;99.90;;;;;;4947245;29;20415;-68
2022/08/29 12:57:05;;;;;;;4.33;3.87;;;28.80;99.90;;;;;;4949013;28;20508;-69
2022/08/29 12:59:32;;;;;;;4.93;4.10;;;28.90;99.90;;;;;;4946371;29;20451;-68
2022/08/29 13:01:59;;;;;;;6.30;3.97;;;29.00;99.90;;;;;;4949050;28;20527;-67
2022/08/29 13:04:28;;;;;;;4.30;4.00;;;29.10;99.90;;;;;;4946629;28;20459;-67
2022/08/29 13:06:57;;;;;;;7.47;4.33;;;28.90;99.90;;;;;;4948405;28;20452;-68
2022/08/29 13:09:38;;;;;;;4.53;3.97;;;29.00;99.90;;;;;;4946326;28;20796;-68
2022/08/29 13:12:19;;;;;;;8.53;4.13;;;28.90;99.90;;;;;;4948155;28;20459;-68
2022/08/29 13:14:49;;;;;;;5.50;3.90;;;28.70;99.90;;;;;;4948390;29;20484;-69
2022/08/29 13:17:18;;;;;;;5.87;3.53;;;28.60;99.90;;;;;;4949445;29;20427;-69
2022/08/29 13:20:22;;;;;;;5.60;4.83;;;28.60;99.90;;;;;;4949996;29;20439;-68
2022/08/29 13:22:48;;;;;;;5.10;4.57;;;28.60;99.90;;;;;;4944823;29;20989;-69
2022/08/29 13:25:16;;;;;;;6.87;3.83;;;28.60;99.90;;;;;;4951591;29;20427;-68
2022/08/29 13:27:43;;;;;;;4.80;4.40;;;28.60;99.90;;;;;;4944748;29;20177;-69
2022/08/29 13:30:21;;;;;;;4.93;4.23;;;28.70;99.90;;;;;;4950654;29;20929;-67
2022/08/29 13:32:48;;;;;;;5.50;4.30;;;28.70;99.90;;;;;;4944563;29;20457;-68
2022/08/29 13:35:14;;;;;;;7.87;3.90;;;28.80;99.90;;;;;;4949606;29;20455;-69
2022/08/29 13:37:42;;;;;;;3.90;3.60;;;28.70;99.90;;;;;;4941403;29;20456;-68
2022/08/29 13:40:48;;;;;;;4.57;4.17;;;28.50;99.90;;;;;;4947385;28;20272;-68
2022/08/29 13:43:37;;;;;;;5.47;4.20;;;28.20;99.90;;;;;;4914673;29;20464;-68
2022/08/29 13:46:21;;;;;;;6.83;4.40;;;28.10;99.90;;;;;;4944289;29;20425;-70
2022/08/29 13:48:46;;;;;;;6.87;3.77;;;28.10;99.90;;;;;;4949161;28;20420;-67
2022/08/29 13:51:12;;;;;;;4.07;3.77;;;28.20;99.90;;;;;;4945512;29;20441;-67
2022/08/29 13:53:38;;;;;;;5.37;4.23;;;28.30;99.90;;;;;;4949508;28;20387;-67
2022/08/29 13:56:17;;;;;;;4.93;3.77;;;28.30;99.90;;;;;;4944376;29;20232;-68
2022/08/29 13:58:43;;;;;;;5.33;4.00;;;28.50;99.90;;;;;;4947767;28;20458;-68
2022/08/29 14:01:08;;;;;;;5.07;4.20;;;28.50;99.90;;;;;;4942332;29;20861;-67
2022/08/29 14:03:34;;;;;;;4.90;4.23;;;28.50;99.90;;;;;;4949780;29;20578;-70
2022/08/29 14:06:00;;;;;;;5.67;4.00;;;28.30;99.90;;;;;;4944133;29;20182;-68
2022/08/29 14:08:26;;;;;;;5.27;4.70;;;28.30;99.90;;;;;;4950979;29;20550;-68
2022/08/29 14:10:52;;;;;;;4.60;4.20;;;28.20;99.90;;;;;;4944012;29;20453;-68
2022/08/29 14:13:17;;;;;;;5.30;4.90;;;28.10;99.90;;;;;;4950538;29;20518;-68
2022/08/29 14:15:43;;;;;;;4.40;3.97;;;27.90;99.90;;;;;;4943805;29;20189;-68
2022/08/29 14:18:08;;;;;;;6.63;4.20;;;27.80;99.90;;;;;;4950533;29;20236;-67
2022/08/29 14:20:35;;;;;;;5.33;4.83;;;27.80;99.90;;;;;;4943810;29;20182;-67
2022/08/29 14:23:01;;;;;;;5.67;4.90;;;27.80;99.90;;;;;;4950334;29;20223;-69
2022/08/29 14:25:27;;;;;;;4.07;3.70;;;27.60;99.90;;;;;;4943777;28;20914;-68
2022/08/29 14:27:53;;;;;;;5.43;4.10;;;27.50;99.90;;;;;;4942495;29;20192;-67
2022/08/29 14:30:21;;;;;;;4.43;4.13;;;27.30;99.90;;;;;;4944644;28;20207;-67
2022/08/29 14:32:47;;;;;;;5.27;4.53;;;27.20;99.90;;;;;;4947647;29;20958;-68
2022/08/29 14:35:13;;;;;;;6.03;4.00;;;27.00;99.90;;;;;;4945547;28;20430;-68